Time;durP1;ratioP1;P1;durP2;ratioP2;P2;SDS_P1;SDS_P2;PMS_P1;PMS_P2;Temp;Humidity;BMP_temperature;BMP_pressure;BME280_temperature;BME280_humidity;BME280_pressure;Samples;Min_cycle;Max_cycle;Signal;HPM_P1;HPM_P2
2022/04/24 00:00:05;;;;;;;16.33;11.15;;;;;;;;;;6245817;23;20009;-55
2022/04/24 00:02:32;;;;;;;20.48;10.57;;;;;;;;;;6246785;23;20000;-57
2022/04/24 00:04:58;;;;;;;14.95;9.95;;;;;;;;;;6246795;22;19993;-58
2022/04/24 00:07:25;;;;;;;18.33;10.40;;;;;;;;;;6245637;23;20008;-58
2022/04/24 00:09:51;;;;;;;13.98;10.88;;;;;;;;;;6246678;23;20064;-60
2022/04/24 00:12:18;;;;;;;14.35;9.35;;;;;;;;;;6246265;23;20007;-57
2022/04/24 00:14:44;;;;;;;18.08;10.00;;;;;;;;;;6246420;22;20127;-59
2022/04/24 00:17:11;;;;;;;16.33;9.80;;;;;;;;;;6246657;23;20065;-57
2022/04/24 00:19:37;;;;;;;15.75;10.15;;;;;;;;;;6246225;23;20001;-57
2022/04/24 00:22:03;;;;;;;21.67;11.07;;;;;;;;;;6246624;23;20054;-55
2022/04/24 00:24:32;;;;;;;13.95;9.80;;;;;;;;;;6246461;23;20054;-56
2022/04/24 00:26:58;;;;;;;22.15;12.25;;;;;;;;;;6246156;22;20000;-60
2022/04/24 00:29:24;;;;;;;22.88;12.45;;;;;;;;;;6246217;23;20453;-58
2022/04/24 00:31:50;;;;;;;19.05;11.65;;;;;;;;;;6246209;23;20050;-59
2022/04/24 00:34:17;;;;;;;19.75;11.48;;;;;;;;;;6246186;23;20012;-55
2022/04/24 00:36:45;;;;;;;22.42;12.90;;;;;;;;;;6246573;23;20020;-60
2022/04/24 00:39:11;;;;;;;23.42;13.88;;;;;;;;;;6246569;22;20000;-59
2022/04/24 00:41:44;;;;;;;20.30;11.57;;;;;;;;;;6245846;23;20292;-57
2022/04/24 00:44:10;;;;;;;17.63;11.70;;;;;;;;;;6246260;23;20003;-57
2022/04/24 00:46:36;;;;;;;24.45;12.65;;;;;;;;;;6246240;22;20004;-59
2022/04/24 00:49:03;;;;;;;21.75;11.38;;;;;;;;;;6246493;23;20015;-54
2022/04/24 00:51:30;;;;;;;15.63;10.70;;;;;;;;;;6248165;23;19996;-60
2022/04/24 00:53:56;;;;;;;16.20;10.30;;;;;;;;;;6249087;23;19996;-59
2022/04/24 00:56:30;;;;;;;17.48;11.02;;;;;;;;;;6247821;23;20007;-61
2022/04/24 00:58:56;;;;;;;14.70;9.50;;;;;;;;;;6248542;22;20004;-57
2022/04/24 01:01:22;;;;;;;14.98;10.13;;;;;;;;;;6248306;23;20008;-58
2022/04/24 01:03:48;;;;;;;14.93;10.00;;;;;;;;;;6247709;23;20001;-59
2022/04/24 01:06:15;;;;;;;32.20;18.98;;;;;;;;;;6248412;23;20007;-60
2022/04/24 01:08:41;;;;;;;29.65;18.95;;;;;;;;;;6247922;23;20008;-59
2022/04/24 01:11:07;;;;;;;32.33;17.58;;;;;;;;;;6247958;23;20075;-57
2022/04/24 01:13:33;;;;;;;32.85;18.13;;;;;;;;;;6248002;23;20000;-58
2022/04/24 01:15:59;;;;;;;33.83;20.02;;;;;;;;;;6247585;23;20435;-54
2022/04/24 01:18:26;;;;;;;33.85;20.95;;;;;;;;;;6247974;23;20027;-58
2022/04/24 01:20:52;;;;;;;30.63;19.05;;;;;;;;;;6249375;22;20027;-57
2022/04/24 01:23:19;;;;;;;26.10;15.93;;;;;;;;;;6250506;23;20054;-54
2022/04/24 01:25:45;;;;;;;35.08;18.08;;;;;;;;;;6251410;23;20000;-58
2022/04/24 01:28:11;;;;;;;47.83;20.67;;;;;;;;;;6250510;23;20011;-56
2022/04/24 01:30:37;;;;;;;51.35;22.17;;;;;;;;;;6251680;23;19999;-58
2022/04/24 01:33:03;;;;;;;29.00;14.75;;;;;;;;;;6251584;23;20004;-57
2022/04/24 01:35:31;;;;;;;30.95;15.80;;;;;;;;;;6251210;23;20315;-57
2022/04/24 01:37:58;;;;;;;28.95;15.23;;;;;;;;;;6247458;22;20439;-59
2022/04/24 01:40:25;;;;;;;25.63;14.07;;;;;;;;;;6248269;22;20007;-56
2022/04/24 01:42:51;;;;;;;23.20;12.98;;;;;;;;;;6248102;23;20023;-55
2022/04/24 01:45:17;;;;;;;21.15;10.50;;;;;;;;;;6247420;23;19996;-59
2022/04/24 01:47:43;;;;;;;16.08;9.25;;;;;;;;;;6248158;23;20008;-53
2022/04/24 01:50:09;;;;;;;14.30;8.90;;;;;;;;;;6248017;23;20415;-56
2022/04/24 01:52:36;;;;;;;30.88;13.65;;;;;;;;;;6247632;23;19996;-59
2022/04/24 01:55:02;;;;;;;29.25;14.63;;;;;;;;;;6247960;23;20004;-55
2022/04/24 01:57:28;;;;;;;25.95;14.07;;;;;;;;;;6247602;23;20011;-57
2022/04/24 01:59:54;;;;;;;21.67;12.95;;;;;;;;;;6247139;23;20012;-59
2022/04/24 02:02:20;;;;;;;22.50;12.82;;;;;;;;;;6247837;23;20431;-52
2022/04/24 02:04:46;;;;;;;21.08;10.63;;;;;;;;;;6247444;23;20010;-58
2022/04/24 02:07:12;;;;;;;21.70;10.82;;;;;;;;;;6247725;23;20004;-56
2022/04/24 02:09:40;;;;;;;16.42;10.07;;;;;;;;;;6247467;23;20007;-52
2022/04/24 02:12:06;;;;;;;16.55;9.15;;;;;;;;;;6247074;22;20443;-58
2022/04/24 02:14:32;;;;;;;15.35;9.80;;;;;;;;;;6247742;23;19996;-53
2022/04/24 02:16:59;;;;;;;13.45;9.20;;;;;;;;;;6247758;22;19992;-54
2022/04/24 02:19:25;;;;;;;16.35;9.68;;;;;;;;;;6246973;23;20007;-56
2022/04/24 02:21:51;;;;;;;12.57;9.82;;;;;;;;;;6247624;23;20004;-53
2022/04/24 02:24:17;;;;;;;16.10;9.95;;;;;;;;;;6247964;23;20028;-56
2022/04/24 02:26:43;;;;;;;12.02;9.32;;;;;;;;;;6247174;23;20411;-58
2022/04/24 02:29:09;;;;;;;12.98;9.43;;;;;;;;;;6247864;23;20015;-54
2022/04/24 02:31:36;;;;;;;15.77;9.52;;;;;;;;;;6247594;23;20006;-56
2022/04/24 02:34:02;;;;;;;14.55;9.98;;;;;;;;;;6247184;23;19993;-56
2022/04/24 02:36:28;;;;;;;16.10;9.75;;;;;;;;;;6247542;23;20466;-56
2022/04/24 02:38:54;;;;;;;18.30;9.98;;;;;;;;;;6247457;23;20000;-56
2022/04/24 02:41:20;;;;;;;14.65;9.18;;;;;;;;;;6246708;23;20001;-52
2022/04/24 02:43:46;;;;;;;17.02;9.48;;;;;;;;;;6246654;23;20004;-60
2022/04/24 02:46:12;;;;;;;12.73;8.98;;;;;;;;;;6246948;23;20379;-55
2022/04/24 02:48:38;;;;;;;15.10;9.07;;;;;;;;;;6246766;23;20059;-56
2022/04/24 02:51:05;;;;;;;16.85;9.30;;;;;;;;;;6247306;23;20003;-56
2022/04/24 02:53:31;;;;;;;12.18;8.40;;;;;;;;;;6246979;23;20066;-58
2022/04/24 02:55:57;;;;;;;12.57;8.45;;;;;;;;;;6247323;23;20000;-56
2022/04/24 02:58:23;;;;;;;17.15;8.63;;;;;;;;;;6247022;23;20007;-59
2022/04/24 03:00:50;;;;;;;14.52;8.77;;;;;;;;;;6246711;22;20016;-56
2022/04/24 03:03:19;;;;;;;13.73;8.77;;;;;;;;;;6247214;22;20016;-58
2022/04/24 03:05:46;;;;;;;14.38;9.60;;;;;;;;;;6247217;23;20000;-55
2022/04/24 03:08:12;;;;;;;15.52;10.15;;;;;;;;;;6246665;23;20015;-57
2022/04/24 03:10:39;;;;;;;16.13;10.98;;;;;;;;;;6246807;23;20319;-55
2022/04/24 03:13:05;;;;;;;15.57;10.02;;;;;;;;;;6246710;23;20003;-56
2022/04/24 03:15:31;;;;;;;17.85;10.27;;;;;;;;;;6246490;22;20000;-55
2022/04/24 03:17:58;;;;;;;15.50;10.15;;;;;;;;;;6247088;23;20054;-54
2022/04/24 03:20:24;;;;;;;14.23;9.13;;;;;;;;;;6247125;22;20019;-57
2022/04/24 03:22:51;;;;;;;12.32;9.75;;;;;;;;;;6246940;23;20000;-55
2022/04/24 03:25:17;;;;;;;14.50;10.70;;;;;;;;;;6247034;23;20031;-57
2022/04/24 03:27:43;;;;;;;14.65;9.38;;;;;;;;;;6246624;23;20008;-53
2022/04/24 03:30:10;;;;;;;12.93;9.20;;;;;;;;;;6246722;23;19992;-55
2022/04/24 03:32:37;;;;;;;13.73;8.88;;;;;;;;;;6247030;23;20419;-58
2022/04/24 03:35:04;;;;;;;12.80;7.65;;;;;;;;;;6246724;22;20001;-57
2022/04/24 03:37:30;;;;;;;12.20;8.25;;;;;;;;;;6246202;23;20007;-56
2022/04/24 03:39:56;;;;;;;11.82;8.30;;;;;;;;;;6247682;23;20083;-59
2022/04/24 03:42:25;;;;;;;13.63;8.55;;;;;;;;;;6246092;23;20002;-54
2022/04/24 03:44:53;;;;;;;14.10;9.38;;;;;;;;;;6246452;22;20042;-59
2022/04/24 03:47:19;;;;;;;13.20;9.15;;;;;;;;;;6246343;23;20000;-58
2022/04/24 03:49:45;;;;;;;11.75;8.88;;;;;;;;;;6246945;23;19992;-58
2022/04/24 03:52:12;;;;;;;12.57;9.07;;;;;;;;;;6246784;23;19996;-54
2022/04/24 03:54:38;;;;;;;13.95;8.70;;;;;;;;;;6246460;23;20067;-54
2022/04/24 03:57:04;;;;;;;13.38;8.25;;;;;;;;;;6246386;22;20006;-55
2022/04/24 03:59:31;;;;;;;11.55;9.15;;;;;;;;;;6246347;23;20423;-60
2022/04/24 04:01:57;;;;;;;16.02;8.93;;;;;;;;;;6246651;23;20015;-53
2022/04/24 04:04:23;;;;;;;11.35;8.50;;;;;;;;;;6246237;23;20304;-55
2022/04/24 04:06:49;;;;;;;10.93;8.25;;;;;;;;;;6246357;23;20007;-60
2022/04/24 04:09:15;;;;;;;11.98;8.32;;;;;;;;;;6246574;23;20000;-51
2022/04/24 04:11:41;;;;;;;11.98;8.43;;;;;;;;;;6246631;23;20000;-57
2022/04/24 04:14:08;;;;;;;11.63;8.80;;;;;;;;;;6246640;23;20256;-57
2022/04/24 04:16:34;;;;;;;14.45;9.07;;;;;;;;;;6246276;23;19996;-55
2022/04/24 04:19:00;;;;;;;11.13;8.70;;;;;;;;;;6245875;23;20006;-54
2022/04/24 04:21:26;;;;;;;11.15;8.82;;;;;;;;;;6246192;23;20004;-60
2022/04/24 04:23:52;;;;;;;13.27;9.10;;;;;;;;;;6246254;22;20455;-53
2022/04/24 04:26:19;;;;;;;13.63;9.32;;;;;;;;;;6244659;23;20431;-53
2022/04/24 04:28:45;;;;;;;14.30;9.65;;;;;;;;;;6246097;23;20014;-57
2022/04/24 04:31:12;;;;;;;11.93;8.88;;;;;;;;;;6246731;23;20050;-58
2022/04/24 04:33:38;;;;;;;15.57;8.98;;;;;;;;;;6246342;23;20446;-55
2022/04/24 04:36:04;;;;;;;12.15;8.95;;;;;;;;;;6246467;23;20051;-58
2022/04/24 04:38:31;;;;;;;13.35;8.80;;;;;;;;;;6246075;23;20004;-56
2022/04/24 04:40:57;;;;;;;17.30;11.75;;;;;;;;;;6246975;22;20075;-56
2022/04/24 04:43:26;;;;;;;17.17;10.63;;;;;;;;;;6246487;23;20292;-58
2022/04/24 04:45:52;;;;;;;15.63;9.75;;;;;;;;;;6246082;22;19992;-52
2022/04/24 04:48:19;;;;;;;13.38;9.73;;;;;;;;;;6246240;23;20004;-57
2022/04/24 04:50:45;;;;;;;18.13;10.68;;;;;;;;;;6246152;23;19996;-55
2022/04/24 04:53:11;;;;;;;14.93;8.90;;;;;;;;;;6246109;23;20438;-57
2022/04/24 04:55:37;;;;;;;21.48;11.23;;;;;;;;;;6246046;23;20427;-54
2022/04/24 04:58:04;;;;;;;15.88;12.18;;;;;;;;;;6246028;23;20011;-58
2022/04/24 05:00:30;;;;;;;19.08;11.93;;;;;;;;;;6245626;23;20069;-52
2022/04/24 05:02:56;;;;;;;18.33;12.68;;;;;;;;;;6246373;23;20328;-52
2022/04/24 05:05:22;;;;;;;13.50;10.43;;;;;;;;;;6246355;23;19996;-60
2022/04/24 05:07:49;;;;;;;14.52;10.18;;;;;;;;;;6245898;23;20004;-57
2022/04/24 05:10:15;;;;;;;12.38;9.52;;;;;;;;;;6246396;23;20000;-57
2022/04/24 05:12:41;;;;;;;11.63;8.88;;;;;;;;;;6246000;23;20050;-56
2022/04/24 05:15:08;;;;;;;13.30;8.23;;;;;;;;;;6245963;22;20007;-58
2022/04/24 05:17:36;;;;;;;15.93;8.27;;;;;;;;;;6246356;23;20000;-57
2022/04/24 05:20:02;;;;;;;13.88;7.82;;;;;;;;;;6245919;23;20335;-60
2022/04/24 05:22:29;;;;;;;12.32;7.80;;;;;;;;;;6245930;23;19993;-59
2022/04/24 05:24:55;;;;;;;11.20;8.30;;;;;;;;;;6246047;23;20000;-56
2022/04/24 05:27:21;;;;;;;13.48;9.32;;;;;;;;;;6245775;23;20003;-55
2022/04/24 05:29:47;;;;;;;14.73;8.65;;;;;;;;;;6245911;23;20027;-56
2022/04/24 05:32:14;;;;;;;13.07;8.68;;;;;;;;;;6246373;22;20000;-54
2022/04/24 05:34:40;;;;;;;11.55;8.32;;;;;;;;;;6245558;23;20000;-55
2022/04/24 05:37:06;;;;;;;11.57;8.90;;;;;;;;;;6247748;23;20004;-53
2022/04/24 05:39:33;;;;;;;12.77;8.82;;;;;;;;;;6247556;23;20358;-54
2022/04/24 05:41:59;;;;;;;14.75;9.23;;;;;;;;;;6247661;23;20046;-57
2022/04/24 05:44:25;;;;;;;12.10;8.48;;;;;;;;;;6247637;23;20000;-56
2022/04/24 05:46:51;;;;;;;13.15;8.40;;;;;;;;;;6247555;23;20031;-58
2022/04/24 05:49:18;;;;;;;17.00;9.20;;;;;;;;;;6247159;23;20362;-55
2022/04/24 05:51:44;;;;;;;16.02;8.52;;;;;;;;;;6248042;23;19996;-53
2022/04/24 05:54:10;;;;;;;13.75;8.45;;;;;;;;;;6247886;23;20378;-56
2022/04/24 05:56:38;;;;;;;13.82;7.50;;;;;;;;;;6247518;23;20010;-54
2022/04/24 05:59:04;;;;;;;13.77;8.02;;;;;;;;;;6247856;22;20008;-58
2022/04/24 06:01:30;;;;;;;11.38;8.05;;;;;;;;;;6247393;23;20082;-58
2022/04/24 06:03:56;;;;;;;15.30;7.50;;;;;;;;;;6247062;23;20333;-59
2022/04/24 06:06:23;;;;;;;11.95;7.20;;;;;;;;;;6247431;23;19996;-58
2022/04/24 06:08:49;;;;;;;10.18;7.60;;;;;;;;;;6247320;23;20004;-57
2022/04/24 06:11:15;;;;;;;11.55;7.75;;;;;;;;;;6247376;23;19996;-57
2022/04/24 06:13:41;;;;;;;11.77;7.40;;;;;;;;;;6247706;23;20007;-55
2022/04/24 06:16:07;;;;;;;12.48;7.15;;;;;;;;;;6247311;23;20010;-59
2022/04/24 06:18:33;;;;;;;11.82;6.70;;;;;;;;;;6247316;23;20426;-55
2022/04/24 06:20:59;;;;;;;13.95;7.57;;;;;;;;;;6247586;23;20000;-55
2022/04/24 06:23:28;;;;;;;10.80;6.65;;;;;;;;;;6247181;23;20066;-56
2022/04/24 06:25:55;;;;;;;11.50;7.00;;;;;;;;;;6247255;22;20000;-59
2022/04/24 06:28:21;;;;;;;10.88;6.45;;;;;;;;;;6247036;22;20053;-53
2022/04/24 06:30:47;;;;;;;9.85;6.75;;;;;;;;;;6247162;23;20000;-56
2022/04/24 06:33:14;;;;;;;11.35;6.60;;;;;;;;;;6245957;23;20000;-58
2022/04/24 06:35:41;;;;;;;10.57;7.35;;;;;;;;;;6247275;23;20423;-55
2022/04/24 06:38:07;;;;;;;10.75;6.53;;;;;;;;;;6246867;22;20026;-59
2022/04/24 06:40:34;;;;;;;13.27;7.20;;;;;;;;;;6247298;23;20055;-55
2022/04/24 06:43:04;;;;;;;10.07;6.22;;;;;;;;;;6246822;23;20435;-56
2022/04/24 06:45:37;;;;;;;9.73;6.75;;;;;;;;;;6246667;23;20428;-55
2022/04/24 06:48:13;;;;;;;10.43;7.05;;;;;;;;;;6246516;23;20454;-59
2022/04/24 06:50:40;;;;;;;16.05;8.27;;;;;;;;;;6246780;23;20110;-53
2022/04/24 06:53:08;;;;;;;13.55;7.40;;;;;;;;;;6246777;23;20008;-55
2022/04/24 06:55:35;;;;;;;11.25;6.90;;;;;;;;;;6247950;23;20007;-57
2022/04/24 06:58:01;;;;;;;13.68;7.18;;;;;;;;;;6247326;23;20365;-55
2022/04/24 07:00:28;;;;;;;14.20;6.75;;;;;;;;;;6246625;23;20033;-59
2022/04/24 07:02:55;;;;;;;12.90;7.25;;;;;;;;;;6246927;23;20075;-55
2022/04/24 07:05:22;;;;;;;11.60;7.03;;;;;;;;;;6246992;23;20019;-58
2022/04/24 07:07:48;;;;;;;13.27;6.85;;;;;;;;;;6246844;23;20009;-54
2022/04/24 07:10:14;;;;;;;14.48;7.05;;;;;;;;;;6249563;23;20068;-57
2022/04/24 07:12:51;;;;;;;12.68;6.95;;;;;;;;;;6249308;23;20358;-55
2022/04/24 07:15:18;;;;;;;13.73;7.43;;;;;;;;;;6249381;23;20012;-55
2022/04/24 07:17:48;;;;;;;10.43;6.40;;;;;;;;;;6248807;22;20000;-55
2022/04/24 07:20:14;;;;;;;8.68;5.85;;;;;;;;;;6248239;23;20022;-54
2022/04/24 07:22:42;;;;;;;9.00;5.88;;;;;;;;;;6248934;23;20070;-54
2022/04/24 07:25:09;;;;;;;8.25;5.28;;;;;;;;;;6248432;23;19997;-55
2022/04/24 07:27:35;;;;;;;13.70;6.57;;;;;;;;;;6246174;22;20019;-52
2022/04/24 07:30:01;;;;;;;13.07;6.97;;;;;;;;;;6245449;23;20319;-58
2022/04/24 07:32:27;;;;;;;11.45;6.55;;;;;;;;;;6246275;23;20054;-54
2022/04/24 07:34:53;;;;;;;11.93;7.10;;;;;;;;;;6246555;23;20004;-54
2022/04/24 07:37:20;;;;;;;18.30;7.63;;;;;;;;;;6246941;23;20003;-51
2022/04/24 07:39:46;;;;;;;16.05;7.82;;;;;;;;;;6246918;23;20092;-54
2022/04/24 07:42:12;;;;;;;20.92;6.55;;;;;;;;;;6246148;23;20090;-57
2022/04/24 07:44:38;;;;;;;10.90;5.18;;;;;;;;;;6246456;23;19996;-51
2022/04/24 07:47:04;;;;;;;9.88;5.80;;;;;;;;;;6246070;23;20000;-56
2022/04/24 07:49:30;;;;;;;7.60;4.18;;;;;;;;;;6245693;23;20039;-52
2022/04/24 07:51:56;;;;;;;8.10;4.07;;;;;;;;;;6245442;23;20008;-57
2022/04/24 07:54:22;;;;;;;6.93;3.25;;;;;;;;;;6244354;23;20427;-54
2022/04/24 07:56:49;;;;;;;7.10;2.95;;;;;;;;;;6246517;23;20001;-55
2022/04/24 07:59:15;;;;;;;6.05;3.20;;;;;;;;;;6246378;23;20049;-56
2022/04/24 08:01:41;;;;;;;6.90;3.17;;;;;;;;;;6246245;23;20012;-57
2022/04/24 08:04:07;;;;;;;6.82;3.53;;;;;;;;;;6246495;23;20004;-62
2022/04/24 08:06:33;;;;;;;6.75;2.88;;;;;;;;;;6246233;22;20004;-57
2022/04/24 08:08:59;;;;;;;8.45;2.80;;;;;;;;;;6245613;23;20012;-57
2022/04/24 08:11:25;;;;;;;5.25;2.90;;;;;;;;;;6246176;23;20000;-56
2022/04/24 08:13:52;;;;;;;3.88;2.70;;;;;;;;;;6246382;23;20383;-59
2022/04/24 08:16:18;;;;;;;5.63;2.35;;;;;;;;;;6245519;23;19996;-54
2022/04/24 08:18:44;;;;;;;6.57;2.80;;;;;;;;;;6246338;23;20024;-53
2022/04/24 08:21:10;;;;;;;7.22;2.50;;;;;;;;;;6244666;23;20080;-53
2022/04/24 08:23:36;;;;;;;7.88;2.67;;;;;;;;;;6243319;23;20082;-54
2022/04/24 08:26:02;;;;;;;4.00;2.20;;;;;;;;;;6245428;23;20472;-58
2022/04/24 08:28:28;;;;;;;6.43;1.98;;;;;;;;;;6245554;23;20011;-55
2022/04/24 08:30:55;;;;;;;5.72;2.25;;;;;;;;;;6245237;23;20053;-59
2022/04/24 08:33:21;;;;;;;7.82;2.72;;;;;;;;;;6246176;22;19996;-52
2022/04/24 08:35:48;;;;;;;6.18;2.67;;;;;;;;;;6246028;23;20004;-57
2022/04/24 08:38:14;;;;;;;5.28;2.75;;;;;;;;;;6245982;22;20004;-57
2022/04/24 08:40:41;;;;;;;7.45;2.83;;;;;;;;;;6245956;23;19996;-55
2022/04/24 08:43:08;;;;;;;8.98;2.90;;;;;;;;;;6245905;23;20050;-56
2022/04/24 08:45:34;;;;;;;7.13;2.85;;;;;;;;;;6245875;22;20057;-56
2022/04/24 08:48:02;;;;;;;4.30;2.78;;;;;;;;;;6246067;23;20055;-54
2022/04/24 08:50:32;;;;;;;7.30;2.80;;;;;;;;;;6245549;22;20130;-54
2022/04/24 08:52:58;;;;;;;10.70;3.22;;;;;;;;;;6245937;23;20007;-58
2022/04/24 08:55:29;;;;;;;6.63;3.25;;;;;;;;;;6245299;23;20008;-59
2022/04/24 08:57:55;;;;;;;5.73;3.43;;;;;;;;;;6245697;22;20007;-61
2022/04/24 09:00:21;;;;;;;14.63;3.13;;;;;;;;;;6245725;22;20397;-58
2022/04/24 09:02:50;;;;;;;5.88;3.10;;;;;;;;;;6245788;23;20363;-58
2022/04/24 09:05:16;;;;;;;5.70;2.97;;;;;;;;;;6245507;23;20000;-60
2022/04/24 09:07:43;;;;;;;6.80;2.60;;;;;;;;;;6245434;23;20008;-57
2022/04/24 09:10:13;;;;;;;6.07;3.50;;;;;;;;;;6246498;22;20089;-59
2022/04/24 09:12:40;;;;;;;9.05;3.33;;;;;;;;;;6246201;23;20377;-56
2022/04/24 09:15:07;;;;;;;12.57;3.42;;;;;;;;;;6247322;23;20007;-57
2022/04/24 09:17:34;;;;;;;10.25;3.92;;;;;;;;;;6248257;23;20057;-58
2022/04/24 09:20:00;;;;;;;7.68;3.40;;;;;;;;;;6247862;23;20038;-56
2022/04/24 09:22:27;;;;;;;7.72;3.20;;;;;;;;;;6248300;23;20000;-56
2022/04/24 09:24:59;;;;;;;8.38;2.90;;;;;;;;;;6247828;23;20019;-55
2022/04/24 09:27:32;;;;;;;11.40;3.40;;;;;;;;;;6247706;22;20019;-56
2022/04/24 09:30:05;;;;;;;6.53;2.80;;;;;;;;;;6248170;22;20008;-55
2022/04/24 09:32:32;;;;;;;8.13;3.28;;;;;;;;;;6246732;23;20004;-58
2022/04/24 09:34:59;;;;;;;9.35;3.30;;;;;;;;;;6247878;23;20006;-58
2022/04/24 09:37:25;;;;;;;9.43;4.20;;;;;;;;;;6246115;23;20358;-59
2022/04/24 09:39:53;;;;;;;4.93;2.83;;;;;;;;;;6246668;23;19996;-52
2022/04/24 09:42:19;;;;;;;10.85;3.33;;;;;;;;;;6247719;23;20050;-58
2022/04/24 09:44:47;;;;;;;6.28;3.40;;;;;;;;;;6247949;23;20035;-51
2022/04/24 09:47:13;;;;;;;8.18;3.78;;;;;;;;;;6247626;22;20030;-53
2022/04/24 09:49:45;;;;;;;7.20;3.30;;;;;;;;;;6247903;23;20043;-54
2022/04/24 09:52:13;;;;;;;8.60;3.50;;;;;;;;;;6248136;22;20075;-54
2022/04/24 09:54:41;;;;;;;6.22;3.10;;;;;;;;;;6247627;23;20001;-53
2022/04/24 09:57:08;;;;;;;9.35;3.90;;;;;;;;;;6247761;22;20008;-58
2022/04/24 09:59:35;;;;;;;9.77;3.15;;;;;;;;;;6247903;22;20039;-58
2022/04/24 10:02:03;;;;;;;7.00;2.83;;;;;;;;;;6247238;22;20083;-58
2022/04/24 10:04:29;;;;;;;8.00;2.85;;;;;;;;;;6247873;23;19993;-57
2022/04/24 10:06:56;;;;;;;10.15;3.22;;;;;;;;;;6247862;22;20311;-51
2022/04/24 10:09:23;;;;;;;5.45;2.47;;;;;;;;;;6247413;22;20008;-55
2022/04/24 10:11:50;;;;;;;5.78;2.50;;;;;;;;;;6247757;23;19996;-51
2022/04/24 10:14:17;;;;;;;7.72;2.97;;;;;;;;;;6247414;22;20142;-55
2022/04/24 10:17:00;;;;;;;6.82;2.67;;;;;;;;;;6248189;23;20007;-57
2022/04/24 10:19:44;;;;;;;7.28;2.42;;;;;;;;;;6248508;22;20000;-58
2022/04/24 10:22:28;;;;;;;8.90;2.75;;;;;;;;;;6247338;22;20050;-59
2022/04/24 10:25:01;;;;;;;5.97;3.20;;;;;;;;;;6247801;23;19996;-60
2022/04/24 10:27:47;;;;;;;7.30;3.28;;;;;;;;;;6245938;23;20327;-58
2022/04/24 10:30:22;;;;;;;7.13;2.40;;;;;;;;;;6247245;22;20004;-59
2022/04/24 10:32:49;;;;;;;6.57;2.50;;;;;;;;;;6247951;22;20315;-58
2022/04/24 10:35:19;;;;;;;7.75;3.20;;;;;;;;;;6247259;23;20004;-57
2022/04/24 10:37:48;;;;;;;5.63;2.10;;;;;;;;;;6247244;22;20008;-56
2022/04/24 10:40:15;;;;;;;7.35;2.78;;;;;;;;;;6246061;22;20000;-58
2022/04/24 10:42:43;;;;;;;6.13;2.25;;;;;;;;;;6246423;23;20389;-60
2022/04/24 10:45:09;;;;;;;9.15;2.92;;;;;;;;;;6245624;22;20474;-55
2022/04/24 10:47:42;;;;;;;9.18;3.10;;;;;;;;;;6245596;23;20042;-58
2022/04/24 10:50:09;;;;;;;7.03;3.28;;;;;;;;;;6241408;22;20177;-59
2022/04/24 10:52:39;;;;;;;6.18;2.38;;;;;;;;;;6243156;22;20000;-56
2022/04/24 10:55:13;;;;;;;6.13;2.70;;;;;;;;;;6243108;23;19999;-56
2022/04/24 10:57:47;;;;;;;9.07;2.67;;;;;;;;;;6243997;23;20000;-57
2022/04/24 11:00:19;;;;;;;12.65;2.75;;;;;;;;;;6246245;22;20407;-55
2022/04/24 11:02:45;;;;;;;5.22;1.90;;;;;;;;;;6246706;22;20003;-59
2022/04/24 11:05:11;;;;;;;6.97;2.50;;;;;;;;;;6246717;23;20430;-55
2022/04/24 11:07:38;;;;;;;4.75;2.08;;;;;;;;;;6247108;23;20337;-55
2022/04/24 11:10:05;;;;;;;6.63;1.70;;;;;;;;;;6247233;23;19996;-61
2022/04/24 11:12:32;;;;;;;8.57;2.35;;;;;;;;;;6246799;23;19996;-57
2022/04/24 11:15:16;;;;;;;8.23;2.53;;;;;;;;;;6247726;23;20004;-56
2022/04/24 11:17:43;;;;;;;7.32;2.50;;;;;;;;;;6246754;23;20007;-55
2022/04/24 11:20:10;;;;;;;5.55;2.25;;;;;;;;;;6247123;23;20003;-53
2022/04/24 11:22:52;;;;;;;9.27;2.30;;;;;;;;;;6247122;23;20007;-58
2022/04/24 11:25:20;;;;;;;6.68;1.70;;;;;;;;;;6246644;23;20000;-59
2022/04/24 11:27:53;;;;;;;7.65;1.92;;;;;;;;;;6247156;23;20012;-58
2022/04/24 11:30:20;;;;;;;6.75;1.83;;;;;;;;;;6247017;23;20003;-56
2022/04/24 11:33:06;;;;;;;5.57;1.98;;;;;;;;;;6246065;23;20015;-53
2022/04/24 11:35:35;;;;;;;6.47;1.95;;;;;;;;;;6246818;23;20364;-56
2022/04/24 11:38:01;;;;;;;7.88;1.58;;;;;;;;;;6246896;22;20490;-54
2022/04/24 11:40:28;;;;;;;5.93;1.92;;;;;;;;;;6246574;23;20450;-56
2022/04/24 11:43:02;;;;;;;7.97;2.30;;;;;;;;;;6247330;22;19996;-56
2022/04/24 11:51:03;;;;;;;8.32;2.40;;;;;;;;;;6246873;23;20011;-51
2022/04/24 11:53:30;;;;;;;7.30;1.75;;;;;;;;;;6246608;23;19992;-54
2022/04/24 11:56:02;;;;;;;7.97;2.25;;;;;;;;;;6246304;23;19997;-54
2022/04/24 11:58:32;;;;;;;10.85;2.70;;;;;;;;;;6247158;23;20008;-59
2022/04/24 12:01:00;;;;;;;8.63;2.00;;;;;;;;;;6245904;22;20016;-55
2022/04/24 12:03:26;;;;;;;9.77;2.70;;;;;;;;;;6246716;23;20028;-54
2022/04/24 12:06:02;;;;;;;5.97;2.40;;;;;;;;;;6246708;23;19996;-58
2022/04/24 12:08:43;;;;;;;10.50;2.88;;;;;;;;;;6246254;23;20015;-53
2022/04/24 12:11:09;;;;;;;10.40;2.63;;;;;;;;;;6247464;23;20023;-55
2022/04/24 12:13:36;;;;;;;13.25;2.67;;;;;;;;;;6246221;23;20047;-54
2022/04/24 12:16:02;;;;;;;7.03;1.75;;;;;;;;;;6246639;23;20427;-58
2022/04/24 12:18:28;;;;;;;8.98;1.92;;;;;;;;;;6246643;22;20004;-58
2022/04/24 12:20:55;;;;;;;9.13;2.60;;;;;;;;;;6245918;23;20007;-57
2022/04/24 12:23:22;;;;;;;9.18;2.38;;;;;;;;;;6246864;22;20005;-55
2022/04/24 12:25:53;;;;;;;11.30;2.63;;;;;;;;;;6246191;22;20003;-55
2022/04/24 12:28:29;;;;;;;9.30;2.42;;;;;;;;;;6246459;23;20012;-54
2022/04/24 12:30:57;;;;;;;10.13;2.50;;;;;;;;;;6246240;22;20019;-53
2022/04/24 12:33:23;;;;;;;9.30;2.58;;;;;;;;;;6246579;22;20323;-54
2022/04/24 12:35:49;;;;;;;10.90;2.63;;;;;;;;;;6246102;23;20018;-59
2022/04/24 12:38:16;;;;;;;7.35;2.55;;;;;;;;;;6246886;23;20035;-59
2022/04/24 12:40:53;;;;;;;8.45;2.55;;;;;;;;;;6246463;23;20007;-54
2022/04/24 12:43:29;;;;;;;10.55;2.47;;;;;;;;;;6246177;23;20003;-57
2022/04/24 12:45:55;;;;;;;7.30;2.13;;;;;;;;;;6248566;23;20000;-57
2022/04/24 12:48:23;;;;;;;13.82;3.17;;;;;;;;;;6248022;23;20034;-55
2022/04/24 12:50:50;;;;;;;14.32;2.97;;;;;;;;;;6248548;22;20042;-57
2022/04/24 12:53:17;;;;;;;13.50;2.65;;;;;;;;;;6248583;23;20004;-57
2022/04/24 12:55:43;;;;;;;12.50;2.88;;;;;;;;;;6247979;23;20071;-58
2022/04/24 12:58:14;;;;;;;11.27;3.03;;;;;;;;;;6248553;23;20071;-58
2022/04/24 13:00:40;;;;;;;18.33;2.80;;;;;;;;;;6248502;22;20016;-56
2022/04/24 13:03:08;;;;;;;11.23;2.83;;;;;;;;;;6248102;23;20071;-59
2022/04/24 13:05:37;;;;;;;10.30;2.65;;;;;;;;;;6248490;22;20020;-57
2022/04/24 13:08:03;;;;;;;17.20;2.88;;;;;;;;;;6248648;22;20005;-55
2022/04/24 13:10:29;;;;;;;19.77;3.03;;;;;;;;;;6248252;22;20000;-56
2022/04/24 13:13:01;;;;;;;17.33;3.03;;;;;;;;;;6248319;23;20001;-53
2022/04/24 13:15:27;;;;;;;17.13;3.28;;;;;;;;;;6248373;22;20434;-51
2022/04/24 13:18:08;;;;;;;14.80;2.50;;;;;;;;;;6247887;23;20522;-58
2022/04/24 13:20:43;;;;;;;21.55;3.05;;;;;;;;;;6249040;23;19992;-55
2022/04/24 13:23:10;;;;;;;14.82;2.83;;;;;;;;;;6252312;23;20000;-53
2022/04/24 13:25:37;;;;;;;12.25;2.65;;;;;;;;;;6249766;23;20000;-58
2022/04/24 13:28:04;;;;;;;19.52;2.97;;;;;;;;;;6249287;23;20441;-57
2022/04/24 13:30:31;;;;;;;15.38;3.22;;;;;;;;;;6247856;23;20000;-58
2022/04/24 13:32:57;;;;;;;9.32;2.35;;;;;;;;;;6249163;23;20046;-58
2022/04/24 13:35:23;;;;;;;16.63;3.20;;;;;;;;;;6248258;23;20027;-58
2022/04/24 13:40:34;;;;;;;24.90;3.92;;;;;;;;;;6248235;23;20063;-54
2022/04/24 13:43:01;;;;;;;21.65;4.13;;;;;;;;;;6248200;23;20054;-56
2022/04/24 13:45:27;;;;;;;15.25;3.63;;;;;;;;;;6247232;23;20030;-57
2022/04/24 13:47:54;;;;;;;24.58;3.80;;;;;;;;;;6247899;23;20004;-59
2022/04/24 13:50:20;;;;;;;22.48;3.53;;;;;;;;;;6248291;23;20008;-58
2022/04/24 13:52:47;;;;;;;24.15;3.47;;;;;;;;;;6247288;23;20000;-55
2022/04/24 13:55:13;;;;;;;19.95;2.88;;;;;;;;;;6247804;23;20427;-56
2022/04/24 13:57:40;;;;;;;25.20;3.30;;;;;;;;;;6247619;23;19993;-58
2022/04/24 14:00:06;;;;;;;24.63;3.63;;;;;;;;;;6247152;23;20027;-57
2022/04/24 14:02:36;;;;;;;20.70;3.97;;;;;;;;;;6247964;23;20000;-56
2022/04/24 14:05:02;;;;;;;20.95;3.75;;;;;;;;;;6247890;23;19996;-60
2022/04/24 14:07:28;;;;;;;17.63;4.47;;;;;;;;;;6247374;23;20004;-55
2022/04/24 14:09:54;;;;;;;34.42;5.35;;;;;;;;;;6247321;23;20019;-58
2022/04/24 14:12:21;;;;;;;17.60;3.42;;;;;;;;;;6247355;23;20000;-56
2022/04/24 14:14:47;;;;;;;23.30;3.55;;;;;;;;;;6247747;23;20389;-55
2022/04/24 14:17:13;;;;;;;24.85;3.80;;;;;;;;;;6247767;22;19996;-58
2022/04/24 14:19:40;;;;;;;22.98;3.88;;;;;;;;;;6247320;23;20012;-60
2022/04/24 14:22:06;;;;;;;25.35;3.88;;;;;;;;;;6247401;23;20423;-54
2022/04/24 14:24:32;;;;;;;27.85;4.07;;;;;;;;;;6247709;23;20000;-57
2022/04/24 14:26:59;;;;;;;27.38;4.15;;;;;;;;;;6247278;23;20001;-56
2022/04/24 14:29:25;;;;;;;28.17;4.32;;;;;;;;;;6247626;23;20000;-58
2022/04/24 14:31:51;;;;;;;31.88;4.57;;;;;;;;;;6247301;23;20000;-58
2022/04/24 14:34:19;;;;;;;27.90;4.45;;;;;;;;;;6247240;23;20004;-55
2022/04/24 14:36:45;;;;;;;39.05;5.70;;;;;;;;;;6247194;22;20000;-52
2022/04/24 14:39:12;;;;;;;48.30;6.57;;;;;;;;;;6247899;23;20000;-58